Time;durP1;ratioP1;P1;durP2;ratioP2;P2;SDS_P1;SDS_P2;PMS_P1;PMS_P2;Temp;Humidity;BMP_temperature;BMP_pressure;BME280_temperature;BME280_humidity;BME280_pressure;Samples;Min_cycle;Max_cycle;Signal;HPM_P1;HPM_P2
2022/03/11 00:01:36;;;;;;;;;;;;;;;-1.79;51.13;101508.06;6242485;23;19919;-80
2022/03/11 00:04:02;;;;;;;;;;;;;;;-1.80;51.26;101501.00;6243469;23;19916;-80
2022/03/11 00:06:28;;;;;;;;;;;;;;;-1.83;51.34;101515.25;6216369;23;19926;-80
2022/03/11 00:08:54;;;;;;;;;;;;;;;-1.83;51.58;101509.81;6243245;23;19916;-80
2022/03/11 00:11:20;;;;;;;;;;;;;;;-1.88;51.55;101518.91;6242720;23;19954;-80
2022/03/11 00:13:45;;;;;;;;;;;;;;;-1.90;51.91;101516.50;6243417;23;20334;-80
2022/03/11 00:16:11;;;;;;;;;;;;;;;-1.89;52.03;101528.19;6245341;23;20246;-80
2022/03/11 00:18:36;;;;;;;;;;;;;;;-1.91;52.28;101522.28;6245475;23;20248;-86
2022/03/11 00:21:01;;;;;;;;;;;;;;;-1.94;52.38;101512.81;6245355;23;19915;-86
2022/03/11 00:23:27;;;;;;;;;;;;;;;-2.00;52.78;101516.03;6244656;23;19930;-86
2022/03/11 00:25:52;;;;;;;;;;;;;;;-2.03;52.92;101509.31;6218279;23;19954;-86
2022/03/11 00:28:18;;;;;;;;;;;;;;;-2.07;52.92;101513.78;6245121;23;19998;-86
2022/03/11 00:30:43;;;;;;;;;;;;;;;-2.07;52.88;101515.69;6245037;23;19916;-86
2022/03/11 00:33:09;;;;;;;;;;;;;;;-2.09;52.99;101509.75;6244973;23;19916;-86
2022/03/11 00:35:35;;;;;;;;;;;;;;;-2.08;53.05;101514.88;6214042;23;19922;-86
2022/03/11 00:38:01;;;;;;;;;;;;;;;-2.07;53.28;101521.94;6217901;23;20341;-85
2022/03/11 00:40:26;;;;;;;;;;;;;;;-2.14;53.02;101513.41;6244880;23;19958;-86
2022/03/11 00:42:52;;;;;;;;;;;;;;;-2.15;53.17;101509.13;6217880;23;19919;-86
2022/03/11 00:45:17;;;;;;;;;;;;;;;-2.18;53.30;101509.72;6245178;23;19926;-85
2022/03/11 00:47:43;;;;;;;;;;;;;;;-2.19;53.18;101524.47;6244275;23;20320;-86
2022/03/11 00:50:09;;;;;;;;;;;;;;;-2.21;52.93;101515.81;6245151;23;19993;-86
2022/03/11 00:52:34;;;;;;;;;;;;;;;-2.22;52.92;101519.63;6244105;23;19994;-86
2022/03/11 00:55:01;;;;;;;;;;;;;;;-2.27;53.06;101514.34;6245265;23;19942;-88
2022/03/11 00:57:29;;;;;;;;;;;;;;;-2.27;53.14;101510.84;6217796;23;19912;-86
2022/03/11 00:59:54;;;;;;;;;;;;;;;-2.27;53.00;101516.28;6245015;23;19915;-86
2022/03/11 01:02:19;;;;;;;;;;;;;;;-2.29;52.07;101516.56;6244293;23;19916;-86
2022/03/11 01:04:48;;;;;;;;;;;;;;;-2.31;52.45;101512.59;6244721;23;19986;-86
2022/03/11 01:07:14;;;;;;;;;;;;;;;-2.31;51.90;101516.09;6244975;23;20285;-87
2022/03/11 01:09:39;;;;;;;;;;;;;;;-2.29;51.94;101519.28;6244426;23;19920;-87
2022/03/11 01:12:05;;;;;;;;;;;;;;;-2.36;51.76;101513.53;6218022;23;20327;-86
2022/03/11 01:14:30;;;;;;;;;;;;;;;-2.37;51.87;101511.91;6244542;23;19991;-85
2022/03/11 01:16:55;;;;;;;;;;;;;;;-2.39;51.43;101519.59;6244515;23;19923;-86
2022/03/11 01:19:21;;;;;;;;;;;;;;;-2.38;51.27;101516.53;6244875;23;19912;-86
2022/03/11 01:21:46;;;;;;;;;;;;;;;-2.39;51.00;101514.16;6244261;23;19974;-86
2022/03/11 01:24:12;;;;;;;;;;;;;;;-2.39;51.40;101519.59;6244562;23;19915;-86
2022/03/11 01:26:37;;;;;;;;;;;;;;;-2.42;51.69;101523.72;6243923;23;19924;-86
2022/03/11 01:29:03;;;;;;;;;;;;;;;-2.45;51.69;101516.19;6244365;23;19947;-85
2022/03/11 01:31:28;;;;;;;;;;;;;;;-2.44;52.01;101511.56;6244073;23;20322;-86
2022/03/11 01:33:54;;;;;;;;;;;;;;;-2.48;51.89;101516.03;6244227;23;19923;-86
2022/03/11 01:36:20;;;;;;;;;;;;;;;-2.49;51.94;101517.13;6244380;23;19919;-79
2022/03/11 01:38:46;;;;;;;;;;;;;;;-2.49;52.00;101515.22;6244290;23;19958;-79
2022/03/11 01:41:11;;;;;;;;;;;;;;;-2.50;52.17;101516.34;6244340;23;19915;-79
2022/03/11 01:44:12;;;;;;;;;;;;;;;-2.51;52.09;101511.22;6243781;23;20001;-80
2022/03/11 01:46:38;;;;;;;;;;;;;;;-2.50;52.28;101518.25;6092381;23;20450;-80
2022/03/11 01:49:04;;;;;;;;;;;;;;;-2.56;52.18;101506.72;6200103;23;19957;-80
2022/03/11 01:51:30;;;;;;;;;;;;;;;-2.58;52.32;101510.84;6243657;23;20360;-79
2022/03/11 01:53:55;;;;;;;;;;;;;;;-2.59;52.45;101510.09;6244120;23;19982;-85
2022/03/11 01:56:21;;;;;;;;;;;;;;;-2.61;52.37;101509.59;6244522;23;20002;-85
2022/03/11 01:58:50;;;;;;;;;;;;;;;-2.61;52.29;101511.50;6243940;23;19943;-85
2022/03/11 02:01:16;;;;;;;;;;;;;;;-2.62;52.30;101521.56;6217358;23;19916;-85
2022/03/11 02:03:41;;;;;;;;;;;;;;;-2.63;52.20;101513.72;6243012;23;19926;-85
2022/03/11 02:06:08;;;;;;;;;;;;;;;-2.65;52.33;101524.09;6244500;23;19943;-85
2022/03/11 02:08:35;;;;;;;;;;;;;;;-2.68;52.49;101527.44;6243521;23;19915;-85
2022/03/11 02:11:01;;;;;;;;;;;;;;;-2.70;52.39;101529.66;6244380;23;19934;-85
2022/03/11 02:13:26;;;;;;;;;;;;;;;-2.74;52.73;101526.75;6216776;23;19920;-79
2022/03/11 02:15:52;;;;;;;;;;;;;;;-2.78;52.71;101533.94;6244241;23;19947;-80
2022/03/11 02:18:17;;;;;;;;;;;;;;;-2.77;52.69;101527.41;6216932;23;20372;-80
2022/03/11 02:20:43;;;;;;;;;;;;;;;-2.80;52.58;101533.47;6244181;23;20277;-79
2022/03/11 02:23:08;;;;;;;;;;;;;;;-2.78;52.64;101533.13;6243646;23;20242;-80
2022/03/11 02:25:34;;;;;;;;;;;;;;;-2.83;52.82;101531.38;6216898;23;20286;-80
2022/03/11 02:27:59;;;;;;;;;;;;;;;-2.87;52.97;101531.16;6243905;23;19925;-80
2022/03/11 02:30:25;;;;;;;;;;;;;;;-2.86;53.03;101531.97;6243721;23;19916;-80
2022/03/11 02:32:50;;;;;;;;;;;;;;;-2.88;53.03;101535.00;6243404;23;19919;-79
2022/03/11 02:35:18;;;;;;;;;;;;;;;-2.88;53.08;101540.44;6243634;23;19922;-79
2022/03/11 02:37:43;;;;;;;;;;;;;;;-2.89;53.27;101540.75;6243801;23;20231;-80
2022/03/11 02:40:09;;;;;;;;;;;;;;;-2.91;53.22;101538.31;6244222;23;19918;-80
2022/03/11 02:42:34;;;;;;;;;;;;;;;-2.94;53.08;101536.25;6216707;23;19915;-79
2022/03/11 02:45:01;;;;;;;;;;;;;;;-2.96;53.31;101533.03;6243669;23;19915;-80
2022/03/11 02:47:27;;;;;;;;;;;;;;;-2.98;53.01;101542.59;6244127;23;19958;-80
2022/03/11 02:49:52;;;;;;;;;;;;;;;-2.99;52.72;101543.72;6216234;23;20305;-79
2022/03/11 02:52:19;;;;;;;;;;;;;;;-2.97;53.17;101531.44;6243375;23;19978;-84
2022/03/11 02:54:44;;;;;;;;;;;;;;;-3.01;53.55;101535.88;6243625;23;20254;-85
2022/03/11 02:57:09;;;;;;;;;;;;;;;-3.01;53.64;101541.31;6243929;23;20353;-85
2022/03/11 02:59:35;;;;;;;;;;;;;;;-2.98;53.70;101532.53;6243658;23;19924;-85
2022/03/11 03:02:00;;;;;;;;;;;;;;;-3.01;53.91;101535.88;6243458;23;19943;-85
2022/03/11 03:04:26;;;;;;;;;;;;;;;-3.01;53.84;101530.44;6243386;23;19946;-85
2022/03/11 03:06:52;;;;;;;;;;;;;;;-3.04;53.93;101536.50;6243530;23;19919;-79
2022/03/11 03:09:17;;;;;;;;;;;;;;;-3.04;53.62;101541.13;6243810;23;19999;-85
2022/03/11 03:11:42;;;;;;;;;;;;;;;-3.05;54.11;101537.63;6243242;23;19915;-85
2022/03/11 03:14:08;;;;;;;;;;;;;;;-3.02;53.84;101536.97;6243516;23;19915;-85
2022/03/11 03:16:33;;;;;;;;;;;;;;;-3.01;53.91;101533.16;6243448;23;20253;-85
2022/03/11 03:18:58;;;;;;;;;;;;;;;-3.04;53.83;101536.50;6243588;23;19920;-83
2022/03/11 03:21:26;;;;;;;;;;;;;;;-3.05;54.15;101544.94;6243319;23;19922;-85
2022/03/11 03:23:52;;;;;;;;;;;;;;;-3.07;53.74;101539.03;6242873;23;19986;-85
2022/03/11 03:26:18;;;;;;;;;;;;;;;-3.06;54.03;101532.47;6243863;23;20238;-79
2022/03/11 03:28:43;;;;;;;;;;;;;;;-3.06;54.13;101536.00;6243019;23;19922;-85
2022/03/11 03:31:18;;;;;;;;;;;;;;;-3.11;53.76;101536.13;6243453;23;20266;-85
2022/03/11 03:33:44;;;;;;;;;;;;;;;-3.13;53.88;101530.22;6242965;23;20408;-85
2022/03/11 03:36:09;;;;;;;;;;;;;;;-3.15;54.10;101540.56;6243528;23;19915;-85
2022/03/11 03:38:34;;;;;;;;;;;;;;;-3.17;53.94;101531.94;6243151;23;19950;-85
2022/03/11 03:41:00;;;;;;;;;;;;;;;-3.14;53.94;101544.88;6243555;23;20239;-84
2022/03/11 03:43:26;;;;;;;;;;;;;;;-3.19;54.19;101539.56;6242978;23;19961;-85
2022/03/11 03:45:51;;;;;;;;;;;;;;;-3.19;54.21;101545.00;6243541;23;20263;-86
2022/03/11 03:48:16;;;;;;;;;;;;;;;-3.21;53.90;101525.53;6243377;23;19912;-80
2022/03/11 03:50:42;;;;;;;;;;;;;;;-3.24;53.87;101531.56;6244836;23;19951;-80
2022/03/11 03:53:07;;;;;;;;;;;;;;;-3.28;53.79;101536.00;6245246;23;19912;-79
2022/03/11 03:55:33;;;;;;;;;;;;;;;-3.25;54.00;101545.44;6218464;23;20293;-80
2022/03/11 03:57:58;;;;;;;;;;;;;;;-3.27;54.00;101548.44;6245528;23;20388;-80
2022/03/11 04:00:23;;;;;;;;;;;;;;;-3.30;53.68;101541.75;6245228;23;19915;-80
2022/03/11 04:02:49;;;;;;;;;;;;;;;-3.31;53.71;101542.84;6244233;23;19947;-80
2022/03/11 04:05:15;;;;;;;;;;;;;;;-3.34;53.73;101548.88;6243780;23;19915;-79
2022/03/11 04:07:44;;;;;;;;;;;;;;;-3.35;53.87;101549.19;6244975;23;19998;-85
2022/03/11 04:10:10;;;;;;;;;;;;;;;-3.32;53.92;101551.31;6218647;23;19919;-85
2022/03/11 04:12:35;;;;;;;;;;;;;;;-3.31;54.09;101548.25;6244870;23;19995;-85
2022/03/11 04:15:01;;;;;;;;;;;;;;;-3.37;54.14;101554.13;6245017;23;19990;-85
2022/03/11 04:17:26;;;;;;;;;;;;;;;-3.35;53.90;101539.13;6245232;23;19917;-85
2022/03/11 04:19:51;;;;;;;;;;;;;;;-3.36;54.28;101555.75;6218079;23;19927;-85
2022/03/11 04:22:17;;;;;;;;;;;;;;;-3.39;53.89;101556.34;6244592;23;20297;-84
2022/03/11 04:24:42;;;;;;;;;;;;;;;-3.42;53.72;101559.66;6245034;23;19964;-85
2022/03/11 04:27:11;;;;;;;;;;;;;;;-3.40;53.41;101557.47;6245166;23;19926;-79
2022/03/11 04:29:37;;;;;;;;;;;;;;;-3.41;53.59;101558.56;6218081;23;19911;-79
2022/03/11 04:32:03;;;;;;;;;;;;;;;-3.40;53.52;101560.97;6218576;23;19916;-80
2022/03/11 04:34:28;;;;;;;;;;;;;;;-3.45;53.54;101571.94;6218036;23;19943;-79
2022/03/11 04:36:56;;;;;;;;;;;;;;;-3.51;53.63;101564.19;6217754;23;19920;-79
2022/03/11 04:39:21;;;;;;;;;;;;;;;-3.52;53.54;101546.34;6245254;23;20197;-80
2022/03/11 04:41:47;;;;;;;;;;;;;;;-3.55;53.23;101560.50;6244608;23;20198;-80
2022/03/11 04:44:12;;;;;;;;;;;;;;;-3.58;52.68;101563.81;6245177;23;19920;-80
2022/03/11 04:46:37;;;;;;;;;;;;;;;-3.60;52.58;101571.47;6218167;23;19915;-79
2022/03/11 04:49:03;;;;;;;;;;;;;;;-3.61;52.67;101575.28;6244846;23;20322;-79
2022/03/11 04:51:28;;;;;;;;;;;;;;;-3.60;52.54;101569.56;6244955;23;19919;-80
2022/03/11 04:53:55;;;;;;;;;;;;;;;-3.58;52.81;101566.53;6217631;23;19916;-79
2022/03/11 04:56:20;;;;;;;;;;;;;;;-3.64;53.17;101563.16;6244691;23;19920;-79
2022/03/11 04:58:45;;;;;;;;;;;;;;;-3.73;52.97;101567.69;6244517;23;19922;-80
2022/03/11 05:01:11;;;;;;;;;;;;;;;-3.76;53.15;101560.94;6244103;23;20361;-81
2022/03/11 05:03:36;;;;;;;;;;;;;;;-3.80;52.71;101565.38;6244062;23;20294;-80
2022/03/11 05:06:01;;;;;;;;;;;;;;;-3.73;53.04;101572.31;6244749;23;19922;-84
2022/03/11 05:08:27;;;;;;;;;;;;;;;-3.73;53.08;101569.59;6244670;23;19947;-84
2022/03/11 05:10:52;;;;;;;;;;;;;;;-3.72;53.35;101569.31;6244231;23;19920;-84
2022/03/11 05:13:18;;;;;;;;;;;;;;;-3.76;53.10;101568.31;6244135;23;19919;-84
2022/03/11 05:15:44;;;;;;;;;;;;;;;-3.88;53.24;101559.88;6217327;23;19919;-84
2022/03/11 05:18:11;;;;;;;;;;;;;;;-3.82;53.11;101564.06;6244198;23;19922;-84
2022/03/11 05:20:36;;;;;;;;;;;;;;;-3.83;53.40;101574.13;6244981;23;19922;-80
2022/03/11 05:23:01;;;;;;;;;;;;;;;-3.86;53.44;101558.47;6244307;23;19920;-80
2022/03/11 05:25:27;;;;;;;;;;;;;;;-3.84;53.67;101571.72;6244100;23;19969;-79
2022/03/11 05:27:52;;;;;;;;;;;;;;;-3.85;53.60;101576.34;6243467;23;20011;-80
2022/03/11 05:30:18;;;;;;;;;;;;;;;-3.84;53.26;101572.50;6244307;23;19916;-81
2022/03/11 05:32:44;;;;;;;;;;;;;;;-3.83;52.88;101574.13;6243663;23;19958;-82
2022/03/11 05:35:09;;;;;;;;;;;;;;;-3.81;53.28;101577.34;6244360;23;20345;-80
2022/03/11 05:37:35;;;;;;;;;;;;;;;-3.83;53.36;101574.13;6242720;23;19997;-80
2022/03/11 05:40:00;;;;;;;;;;;;;;;-3.79;53.17;101580.53;6244046;23;19935;-80
2022/03/11 05:42:26;;;;;;;;;;;;;;;-3.67;53.44;101581.91;6244320;23;19922;-84
2022/03/11 05:44:52;;;;;;;;;;;;;;;-3.63;52.85;101585.63;6243919;23;20265;-85
2022/03/11 05:47:17;;;;;;;;;;;;;;;-3.58;52.92;101585.53;6243400;23;19915;-86
2022/03/11 05:49:43;;;;;;;;;;;;;;;-3.54;52.71;101597.38;6243684;23;19924;-85
2022/03/11 05:52:08;;;;;;;;;;;;;;;-3.48;52.65;101591.56;6242741;23;19915;-84
2022/03/11 05:54:34;;;;;;;;;;;;;;;-3.44;52.56;101591.75;6216636;23;19950;-83
2022/03/11 05:57:02;;;;;;;;;;;;;;;-3.41;52.42;101596.53;6243861;23;20334;-84
2022/03/11 05:59:29;;;;;;;;;;;;;;;-3.33;52.57;101593.09;6244238;23;19915;-84
2022/03/11 06:01:55;;;;;;;;;;;;;;;-3.26;52.21;101595.38;6243809;23;20257;-82
2022/03/11 06:04:20;;;;;;;;;;;;;;;-3.21;52.05;101595.28;6241892;23;19970;-79
2022/03/11 06:06:45;;;;;;;;;;;;;;;-3.18;52.28;101598.19;6242301;23;19943;-80
2022/03/11 06:09:11;;;;;;;;;;;;;;;-3.13;52.27;101606.22;6242581;23;19927;-80
2022/03/11 06:11:36;;;;;;;;;;;;;;;-3.06;51.83;101609.28;6241954;23;19965;-80
2022/03/11 06:14:02;;;;;;;;;;;;;;;-3.01;51.24;101601.03;6241784;23;19997;-81
2022/03/11 06:16:27;;;;;;;;;;;;;;;-2.89;51.72;101606.72;6243127;23;19916;-84
2022/03/11 06:18:53;;;;;;;;;;;;;;;-2.80;51.62;101611.41;6243458;23;19918;-85
2022/03/11 06:21:18;;;;;;;;;;;;;;;-2.72;51.15;101607.94;6243204;23;19922;-85
2022/03/11 06:23:43;;;;;;;;;;;;;;;-2.62;50.83;101610.38;6242237;23;19912;-84
2022/03/11 06:26:09;;;;;;;;;;;;;;;-2.44;50.27;101615.63;6243442;23;19920;-84
2022/03/11 06:28:34;;;;;;;;;;;;;;;-2.23;50.14;101618.63;6243955;23;20302;-84
2022/03/11 06:31:00;;;;;;;;;;;;;;;-2.00;49.87;101614.72;6242944;23;19923;-84
2022/03/11 06:33:25;;;;;;;;;;;;;;;-1.74;48.68;101622.16;6242381;23;20285;-84
2022/03/11 06:35:51;;;;;;;;;;;;;;;-1.60;48.54;101620.09;6243130;23;19922;-82
2022/03/11 06:38:16;;;;;;;;;;;;;;;-1.51;47.34;101618.22;6243555;23;20277;-82
2022/03/11 06:40:49;;;;;;;;;;;;;;;-1.35;46.91;101624.81;6243393;23;19939;-81
2022/03/11 06:43:15;;;;;;;;;;;;;;;-1.09;46.57;101627.56;6214818;23;19954;-84
2022/03/11 06:45:40;;;;;;;;;;;;;;;-1.06;44.92;101635.88;6240528;23;19921;-83
2022/03/11 06:48:07;;;;;;;;;;;;;;;-1.09;45.00;101633.78;6240837;23;19998;-85
2022/03/11 06:50:33;;;;;;;;;;;;;;;-1.00;44.28;101626.41;6242456;23;19943;-83
2022/03/11 06:52:58;;;;;;;;;;;;;;;-1.01;44.11;101632.97;6242274;23;19915;-82
2022/03/11 06:55:24;;;;;;;;;;;;;;;-0.93;43.86;101634.91;6242486;23;19951;-84
2022/03/11 06:57:49;;;;;;;;;;;;;;;-0.79;43.77;101626.56;6243474;23;19916;-80
2022/03/11 07:00:15;;;;;;;;;;;;;;;-0.67;43.77;101628.63;6243862;23;20288;-84
2022/03/11 07:02:43;;;;;;;;;;;;;;;-0.43;43.42;101633.56;6243234;23;20326;-84
2022/03/11 07:05:09;;;;;;;;;;;;;;;-0.30;42.47;101638.84;6243607;23;19919;-84
2022/03/11 07:07:37;;;;;;;;;;;;;;;-0.21;41.72;101638.81;6243624;23;20758;-84
2022/03/11 07:10:03;;;;;;;;;;;;;;;-0.24;41.05;101640.25;6216519;23;19919;-84
2022/03/11 07:12:30;;;;;;;;;;;;;;;-0.33;41.11;101639.50;6243595;23;20288;-85
2022/03/11 07:14:58;;;;;;;;;;;;;;;-0.22;40.77;101638.00;6216875;23;19918;-85
2022/03/11 07:17:23;;;;;;;;;;;;;;;-0.14;40.57;101642.63;6240870;22;19986;-85
2022/03/11 07:19:49;;;;;;;;;;;;;;;0.04;40.46;101637.13;6240374;23;19939;-79
2022/03/11 07:22:14;;;;;;;;;;;;;;;-0.09;39.82;101634.28;6215079;23;19916;-80
2022/03/11 07:24:41;;;;;;;;;;;;;;;0.19;39.67;101640.09;6215591;23;19923;-80
2022/03/11 07:27:06;;;;;;;;;;;;;;;0.29;39.65;101641.66;6243716;23;20002;-81
2022/03/11 07:29:32;;;;;;;;;;;;;;;0.34;38.75;101644.19;6243181;23;20012;-80
2022/03/11 07:31:57;;;;;;;;;;;;;;;0.61;38.90;101651.13;6242070;23;20366;-80
2022/03/11 07:34:23;;;;;;;;;;;;;;;0.78;38.46;101654.53;6217018;23;20288;-85
2022/03/11 07:36:49;;;;;;;;;;;;;;;0.75;38.12;101651.66;6242490;23;19938;-85
2022/03/11 07:39:14;;;;;;;;;;;;;;;0.70;37.27;101644.47;6216837;23;19916;-85
2022/03/11 07:41:40;;;;;;;;;;;;;;;0.73;37.75;101653.94;6243315;23;20006;-86
2022/03/11 07:44:05;;;;;;;;;;;;;;;1.04;37.19;101653.56;6242103;23;19939;-85
2022/03/11 07:46:32;;;;;;;;;;;;;;;1.12;35.88;101656.22;6216892;23;20247;-86
2022/03/11 07:48:57;;;;;;;;;;;;;;;0.97;35.29;101656.03;6242738;23;19918;-86
2022/03/11 07:51:25;;;;;;;;;;;;;;;1.03;36.17;101657.41;6216407;23;19969;-86
2022/03/11 07:53:50;;;;;;;;;;;;;;;1.25;36.07;101654.34;6242970;23;19955;-85
2022/03/11 07:56:16;;;;;;;;;;;;;;;1.45;36.33;101650.78;6216624;23;19947;-81
2022/03/11 07:58:42;;;;;;;;;;;;;;;1.59;35.55;101658.69;6241626;23;19923;-80
2022/03/11 08:01:09;;;;;;;;;;;;;;;1.47;35.60;101653.16;6216754;23;19935;-81
2022/03/11 08:03:36;;;;;;;;;;;;;;;1.34;35.60;101657.78;6242667;23;19947;-80
2022/03/11 08:06:01;;;;;;;;;;;;;;;1.07;35.82;101659.16;6215695;23;20700;-81
2022/03/11 08:08:28;;;;;;;;;;;;;;;0.90;36.88;101649.16;6242710;23;20334;-80
2022/03/11 08:10:54;;;;;;;;;;;;;;;0.77;36.47;101650.19;6216895;23;19918;-79
2022/03/11 08:13:20;;;;;;;;;;;;;;;0.83;36.42;101659.81;6245097;23;19919;-80
2022/03/11 08:15:46;;;;;;;;;;;;;;;0.65;37.04;101652.84;6218351;23;19919;-80
2022/03/11 08:18:11;;;;;;;;;;;;;;;1.10;36.72;101646.72;6217962;23;19922;-80
2022/03/11 08:20:37;;;;;;;;;;;;;;;1.18;36.76;101654.06;6245179;23;19943;-80
2022/03/11 08:23:02;;;;;;;;;;;;;;;1.27;36.35;101657.53;6244651;23;19969;-80
2022/03/11 08:25:28;;;;;;;;;;;;;;;1.60;36.66;101655.63;6245265;23;19919;-80
2022/03/11 08:27:54;;;;;;;;;;;;;;;1.72;36.13;101650.19;6244364;23;19962;-80
2022/03/11 08:30:20;;;;;;;;;;;;;;;1.95;35.59;101641.53;6245289;23;19924;-80
2022/03/11 08:32:46;;;;;;;;;;;;;;;2.18;35.67;101659.97;6244977;23;20288;-80
2022/03/11 08:35:11;;;;;;;;;;;;;;;2.41;35.70;101646.63;6218384;23;19922;-86
2022/03/11 08:37:37;;;;;;;;;;;;;;;2.16;35.33;101648.53;6218042;23;20306;-86
2022/03/11 08:40:03;;;;;;;;;;;;;;;1.87;35.65;101641.31;6217619;23;19916;-85
2022/03/11 08:42:29;;;;;;;;;;;;;;;1.52;36.83;101625.63;6218118;23;19918;-86
2022/03/11 08:44:54;;;;;;;;;;;;;;;1.70;37.37;101638.75;6244610;23;20401;-86
2022/03/11 08:47:20;;;;;;;;;;;;;;;1.94;36.58;101643.50;6245056;23;19998;-86
2022/03/11 08:49:45;;;;;;;;;;;;;;;1.62;36.77;101636.91;6217476;23;19994;-86
2022/03/11 08:52:11;;;;;;;;;;;;;;;1.90;37.22;101633.56;6218262;23;19919;-87
2022/03/11 08:54:36;;;;;;;;;;;;;;;1.88;35.65;101645.66;6218297;23;20333;-86
2022/03/11 08:57:03;;;;;;;;;;;;;;;1.82;36.23;101641.53;6244611;23;20411;-86
2022/03/11 08:59:28;;;;;;;;;;;;;;;2.24;36.84;101635.88;6244474;23;19923;-86
2022/03/11 09:01:54;;;;;;;;;;;;;;;2.62;35.71;101630.84;6244562;23;19923;-87
2022/03/11 09:04:20;;;;;;;;;;;;;;;2.11;35.05;101632.34;6244523;23;19973;-87
2022/03/11 09:06:46;;;;;;;;;;;;;;;1.60;36.36;101633.72;6244876;23;19927;-87
2022/03/11 09:09:11;;;;;;;;;;;;;;;1.62;37.18;101636.13;6244613;23;19915;-87
2022/03/11 09:11:36;;;;;;;;;;;;;;;1.80;37.59;101635.59;6244848;23;19912;-87
2022/03/11 09:14:02;;;;;;;;;;;;;;;1.77;36.79;101639.03;6243432;23;19919;-87
2022/03/11 09:16:27;;;;;;;;;;;;;;;1.88;37.05;101642.91;6244943;23;19923;-88
2022/03/11 09:18:54;;;;;;;;;;;;;;;1.50;37.46;101645.09;6244221;23;19915;-88
2022/03/11 09:21:21;;;;;;;;;;;;;;;1.74;37.57;101627.97;6218077;23;20484;-88
2022/03/11 09:23:47;;;;;;;;;;;;;;;1.72;36.86;101628.28;6244037;23;19916;-88
2022/03/11 09:26:13;;;;;;;;;;;;;;;1.80;37.29;101635.59;6218119;23;19911;-88
2022/03/11 09:28:39;;;;;;;;;;;;;;;1.96;37.23;101627.53;6244373;23;19915;-88
2022/03/11 09:31:08;;;;;;;;;;;;;;;1.82;36.67;101630.56;6244285;23;20349;-80
2022/03/11 09:33:37;;;;;;;;;;;;;;;1.67;36.66;101633.16;6244294;23;19920;-80
2022/03/11 09:36:03;;;;;;;;;;;;;;;1.59;37.15;101631.31;6192225;23;19957;-80
2022/03/11 09:38:28;;;;;;;;;;;;;;;1.93;37.37;101630.16;6244376;23;19915;-80
2022/03/11 09:40:56;;;;;;;;;;;;;;;2.11;36.14;101632.34;6244575;23;19920;-80
2022/03/11 09:43:21;;;;;;;;;;;;;;;2.15;36.04;101627.78;6244015;23;19920;-80
2022/03/11 09:45:46;;;;;;;;;;;;;;;2.46;35.71;101623.69;6244215;23;19961;-80
2022/03/11 09:48:12;;;;;;;;;;;;;;;2.32;35.50;101629.50;6243992;23;20245;-88
2022/03/11 09:50:37;;;;;;;;;;;;;;;2.38;35.30;101628.13;6217601;23;20230;-80
2022/03/11 09:53:03;;;;;;;;;;;;;;;2.35;35.65;101621.38;6243573;23;20367;-80
2022/03/11 09:55:28;;;;;;;;;;;;;;;2.07;35.99;101619.66;6243337;23;19920;-80
2022/03/11 09:57:55;;;;;;;;;;;;;;;2.26;36.33;101614.44;6216266;23;19919;-80
2022/03/11 10:00:20;;;;;;;;;;;;;;;2.49;36.30;101612.81;6244098;23;19915;-80
2022/03/11 10:02:45;;;;;;;;;;;;;;;2.72;35.29;101608.44;6243823;23;19922;-80
2022/03/11 10:05:12;;;;;;;;;;;;;;;2.31;35.33;101589.56;6243719;23;19922;-80
2022/03/11 10:07:37;;;;;;;;;;;;;;;2.45;35.55;101600.97;6244589;23;19916;-80
2022/03/11 10:10:12;;;;;;;;;;;;;;;2.41;35.21;101602.78;6217124;23;19922;-80
2022/03/11 10:12:40;;;;;;;;;;;;;;;2.23;35.20;101602.22;6217414;23;19916;-80
2022/03/11 10:15:05;;;;;;;;;;;;;;;1.78;35.93;101585.88;6243183;23;20556;-80
2022/03/11 10:17:41;;;;;;;;;;;;;;;2.26;35.79;101592.53;6217179;23;19920;-80
2022/03/11 10:20:07;;;;;;;;;;;;;;;2.72;35.57;101592.00;6243507;23;19915;-80
2022/03/11 10:22:33;;;;;;;;;;;;;;;2.93;34.20;101588.28;6244370;23;19911;-80
2022/03/11 10:25:00;;;;;;;;;;;;;;;2.99;34.73;101562.25;6243733;23;19916;-80
2022/03/11 10:27:26;;;;;;;;;;;;;;;3.03;34.39;101579.59;6244147;23;19915;-80
2022/03/11 10:29:51;;;;;;;;;;;;;;;2.97;34.10;101576.28;6243429;23;19950;-88
2022/03/11 10:32:25;;;;;;;;;;;;;;;3.24;34.32;101585.66;6216987;23;19939;-88
2022/03/11 10:34:51;;;;;;;;;;;;;;;3.53;33.19;101576.25;6243679;23;19920;-88
2022/03/11 10:37:17;;;;;;;;;;;;;;;3.72;32.90;101574.41;6244208;23;19968;-88
2022/03/11 10:39:43;;;;;;;;;;;;;;;3.72;32.79;101577.13;6243809;23;19958;-88
2022/03/11 10:42:11;;;;;;;;;;;;;;;3.52;33.14;101571.94;6243856;23;19912;-88
2022/03/11 10:44:37;;;;;;;;;;;;;;;3.60;32.97;101574.47;6243732;23;19919;-89
2022/03/11 10:47:18;;;;;;;;;;;;;;;3.35;33.69;101581.28;6244287;23;19912;-80
2022/03/11 10:49:47;;;;;;;;;;;;;;;3.58;34.10;101567.75;6243322;23;19927;-88
2022/03/11 10:52:13;;;;;;;;;;;;;;;3.70;33.05;101565.72;6243513;23;20418;-88
2022/03/11 10:54:38;;;;;;;;;;;;;;;3.67;32.73;101577.44;6244112;23;19947;-88
2022/03/11 10:57:10;;;;;;;;;;;;;;;3.68;33.15;101562.53;6216856;23;20022;-87
2022/03/11 10:59:36;;;;;;;;;;;;;;;3.34;32.65;101568.69;6243488;23;19915;-89
2022/03/11 11:02:02;;;;;;;;;;;;;;;2.88;33.56;101561.13;6243233;23;19990;-87
2022/03/11 11:04:27;;;;;;;;;;;;;;;2.69;33.15;101556.28;6243462;23;20322;-80
2022/03/11 11:06:54;;;;;;;;;;;;;;;2.59;33.41;101559.53;6243726;23;19923;-80
2022/03/11 11:09:22;;;;;;;;;;;;;;;2.93;33.31;101544.44;6243519;23;19912;-80
2022/03/11 11:11:48;;;;;;;;;;;;;;;2.97;32.49;101545.34;6243316;23;19916;-80
2022/03/11 11:14:13;;;;;;;;;;;;;;;3.11;32.65;101541.06;6243407;23;19954;-80
2022/03/11 11:16:46;;;;;;;;;;;;;;;3.47;31.72;101539.25;6216638;23;19915;-80
2022/03/11 11:19:15;;;;;;;;;;;;;;;3.13;32.08;101538.75;6243147;23;19915;-80
2022/03/11 11:21:41;;;;;;;;;;;;;;;2.79;32.20;101537.41;6243858;23;19915;-80
2022/03/11 11:24:11;;;;;;;;;;;;;;;3.11;33.12;101526.56;6243236;23;19916;-80
2022/03/11 11:26:36;;;;;;;;;;;;;;;3.35;32.09;101523.69;6243864;23;19916;-80
2022/03/11 11:29:02;;;;;;;;;;;;;;;3.69;29.83;101511.19;6243320;23;19943;-80
2022/03/11 11:31:27;;;;;;;;;;;;;;;3.79;30.59;101515.38;6216527;23;19920;-80
2022/03/11 11:33:52;;;;;;;;;;;;;;;3.87;30.84;101508.88;6216578;23;19927;-80
2022/03/11 11:36:35;;;;;;;;;;;;;;;4.05;30.83;101510.09;6243769;23;19912;-80
2022/03/11 11:39:01;;;;;;;;;;;;;;;4.34;30.75;101511.53;6243316;23;19920;-80
2022/03/11 11:41:27;;;;;;;;;;;;;;;4.32;29.84;101508.38;6243243;23;19915;-88
2022/03/11 11:43:54;;;;;;;;;;;;;;;3.60;30.44;101496.88;6243144;23;19919;-89
2022/03/11 11:46:22;;;;;;;;;;;;;;;3.38;31.07;101502.97;6243806;23;19922;-87
2022/03/11 11:48:48;;;;;;;;;;;;;;;2.87;31.08;101499.25;6242987;23;19919;-89
2022/03/11 11:51:18;;;;;;;;;;;;;;;3.20;31.21;101499.75;6242098;23;20030;-88
2022/03/11 11:53:54;;;;;;;;;;;;;;;3.56;30.73;101499.50;6242890;23;19923;-87
2022/03/11 11:56:32;;;;;;;;;;;;;;;3.79;31.27;101494.22;6214208;23;19920;-88
2022/03/11 11:58:59;;;;;;;;;;;;;;;3.92;30.28;101489.41;6241864;23;20330;-86
2022/03/11 12:01:40;;;;;;;;;;;;;;;3.84;30.08;101488.44;6242094;23;19926;-80
2022/03/11 12:04:20;;;;;;;;;;;;;;;4.02;30.07;101484.16;6241647;23;19916;-87
2022/03/11 12:06:53;;;;;;;;;;;;;;;4.08;30.05;101485.47;6242138;23;19915;-87
2022/03/11 12:09:37;;;;;;;;;;;;;;;4.36;29.57;101471.56;6242007;23;19916;-87
2022/03/11 12:12:03;;;;;;;;;;;;;;;4.54;29.70;101478.22;6243312;23;20029;-87
2022/03/11 12:14:29;;;;;;;;;;;;;;;4.63;29.15;101473.31;6243770;23;20326;-87
2022/03/11 12:17:02;;;;;;;;;;;;;;;4.35;29.02;101472.72;6243855;23;20452;-87
2022/03/11 12:19:37;;;;;;;;;;;;;;;3.88;29.27;101478.34;6244519;23;19915;-88
2022/03/11 12:22:35;;;;;;;;;;;;;;;3.51;30.04;101468.81;6243948;23;19919;-86
2022/03/11 12:25:02;;;;;;;;;;;;;;;3.56;31.57;101461.09;6150618;23;19923;-79
2022/03/11 12:27:48;;;;;;;;;;;;;;;3.33;30.29;101457.41;6242872;23;19991;-79
2022/03/11 12:30:13;;;;;;;;;;;;;;;3.55;30.86;101459.53;6195653;23;20452;-79
2022/03/11 12:32:39;;;;;;;;;;;;;;;3.69;29.71;101451.63;6243832;23;19916;-79
2022/03/11 12:35:05;;;;;;;;;;;;;;;3.91;30.34;101454.88;6191657;23;19923;-79
2022/03/11 12:37:31;;;;;;;;;;;;;;;3.98;29.61;101444.03;6216995;23;20365;-79